Terminal Aerodrome Forecast
Issued by NWS

Home | Current Version | Previous Version | Text Only | Print | Product List | Glossary On
Versions: 1 2 3 4 5 6 7 8 9 10 11 12
733
FTUS46 KSEW 262320
TAFCLM
TAF
KCLM 262320Z 2700/2724 34005KT P6SM SCT250
     FM270200 28007KT P6SM SCT250
     FM270900 30010KT 5SM BR OVC008
     FM271800 30010KT P6SM BKN015
     FM272000 30012KT P6SM BKN025 BKN100=

USA.gov is the U.S. government's official web portal to all federal, state and local government web resources and services.